createdAt,value
2022-11-14T00:01:36.391Z,13.97
2022-11-14T00:04:29.327Z,14.53
2022-11-14T00:07:17.593Z,13.83
2022-11-14T00:10:05.916Z,14.20
2022-11-14T00:12:52.794Z,14.10
2022-11-14T00:15:39.773Z,12.80
2022-11-14T00:18:27.152Z,13.13
2022-11-14T00:21:15.737Z,12.77
2022-11-14T00:24:02.345Z,13.50
2022-11-14T00:26:49.870Z,13.70
2022-11-14T00:29:36.617Z,11.90
2022-11-14T00:32:23.548Z,11.70
2022-11-14T00:35:11.005Z,11.67
2022-11-14T00:37:59.848Z,11.97
2022-11-14T00:40:47.268Z,12.00
2022-11-14T00:43:34.362Z,10.70
2022-11-14T00:46:21.377Z,10.50
2022-11-14T00:49:08.362Z,11.20
2022-11-14T00:51:55.038Z,12.30
2022-11-14T00:54:43.472Z,10.90
2022-11-14T00:57:30.315Z,11.90
2022-11-14T01:00:17.713Z,10.60
2022-11-14T01:03:05.162Z,10.80
2022-11-14T01:05:53.094Z,10.83
2022-11-14T01:08:39.742Z,10.90
2022-11-14T01:11:28.026Z,11.23
2022-11-14T01:14:14.959Z,11.40
2022-11-14T01:17:02.157Z,10.80
2022-11-14T01:19:49.319Z,10.37
2022-11-14T01:22:36.264Z,10.80
2022-11-14T01:25:23.533Z,10.33
2022-11-14T01:28:14.646Z,10.47
2022-11-14T01:31:11.118Z,10.40
2022-11-14T01:33:57.957Z,10.00
2022-11-14T01:36:44.888Z,10.77
2022-11-14T01:39:31.985Z,10.73
2022-11-14T01:42:21.967Z,10.20
2022-11-14T01:45:53.946Z,11.30
2022-11-14T01:48:45.645Z,11.57
2022-11-14T01:51:37.317Z,11.07
2022-11-14T01:54:33.064Z,12.30
2022-11-14T01:57:24.765Z,11.70
2022-11-14T02:00:14.413Z,10.90
2022-11-14T02:03:03.133Z,12.53
2022-11-14T02:05:51.132Z,11.00
2022-11-14T02:08:38.573Z,12.47
2022-11-14T02:11:25.308Z,11.57
2022-11-14T02:14:12.751Z,12.30
2022-11-14T02:17:22.739Z,12.80
2022-11-14T02:20:18.241Z,12.97
2022-11-14T02:23:05.305Z,13.10
2022-11-14T02:25:52.102Z,12.37
2022-11-14T02:28:39.474Z,12.93
2022-11-14T02:31:26.165Z,13.00
2022-11-14T02:34:13.095Z,12.03
2022-11-14T02:37:01.848Z,11.57
2022-11-14T02:39:49.055Z,10.83
2022-11-14T02:42:36.262Z,10.60
2022-11-14T02:45:23.534Z,12.30
2022-11-14T02:48:10.885Z,11.77
2022-11-14T02:50:58.069Z,11.60
2022-11-14T02:53:46.494Z,11.43
2022-11-14T02:56:33.304Z,12.33
2022-11-14T02:59:20.229Z,11.20
2022-11-14T03:02:07.304Z,12.43
2022-11-14T03:04:55.167Z,12.17
2022-11-14T03:07:42.007Z,12.20
2022-11-14T03:10:30.344Z,11.57
2022-11-14T03:13:17.072Z,12.13
2022-11-14T03:16:08.424Z,11.53
2022-11-14T03:18:55.392Z,11.43
2022-11-14T03:21:41.988Z,12.60
2022-11-14T03:24:28.957Z,12.83
2022-11-14T03:27:17.450Z,12.87
2022-11-14T03:30:04.354Z,12.63
2022-11-14T03:32:51.302Z,12.20
2022-11-14T03:35:38.090Z,11.33
2022-11-14T03:38:25.409Z,12.70
2022-11-14T03:41:12.082Z,13.50
2022-11-14T03:44:00.371Z,11.83
2022-11-14T03:46:47.346Z,12.30
2022-11-14T03:49:34.205Z,12.70
2022-11-14T03:52:21.248Z,12.67
2022-11-14T03:55:09.381Z,12.60
2022-11-14T03:57:56.199Z,13.43
2022-11-14T04:00:44.747Z,12.33
2022-11-14T04:03:31.917Z,13.20
2022-11-14T04:06:18.789Z,12.97
2022-11-14T04:09:06.556Z,13.30
2022-11-14T04:11:53.426Z,12.57
2022-11-14T04:14:40.366Z,12.13
2022-11-14T04:17:28.752Z,13.23
2022-11-14T04:20:16.512Z,11.90
2022-11-14T04:23:03.584Z,12.60
2022-11-14T04:25:50.697Z,13.27
2022-11-14T04:28:37.619Z,13.37
2022-11-14T04:31:24.548Z,13.37
2022-11-14T04:34:12.847Z,12.77
2022-11-14T04:36:59.637Z,12.40
2022-11-14T04:39:47.209Z,12.43
2022-11-14T04:42:34.234Z,13.20
2022-11-14T04:45:21.359Z,13.10
2022-11-14T04:48:08.190Z,12.67
2022-11-14T04:50:56.286Z,12.30
2022-11-14T04:53:43.044Z,13.17
2022-11-14T04:56:30.009Z,12.60
2022-11-14T04:59:20.877Z,13.93
2022-11-14T05:02:08.087Z,13.00
2022-11-14T05:04:55.323Z,11.23
2022-11-14T05:07:43.639Z,13.60
2022-11-14T05:10:30.219Z,12.53
2022-11-14T05:13:17.126Z,13.30
2022-11-14T05:16:04.109Z,13.00
2022-11-14T05:18:51.104Z,13.27
2022-11-14T05:21:38.092Z,13.33
2022-11-14T05:24:27.289Z,12.70
2022-11-14T05:27:14.004Z,13.53
2022-11-14T05:30:01.006Z,12.77
2022-11-14T05:32:48.137Z,13.60
2022-11-14T05:35:35.162Z,12.63
2022-11-14T05:38:22.294Z,14.33
2022-11-14T05:41:13.904Z,12.33
2022-11-14T05:44:00.745Z,13.90
2022-11-14T05:46:47.932Z,13.30
2022-11-14T05:49:34.842Z,13.80
2022-11-14T05:52:22.050Z,14.60
2022-11-14T05:55:10.150Z,12.73
2022-11-14T05:58:01.276Z,13.00
2022-11-14T06:00:53.454Z,14.90
2022-11-14T06:03:43.450Z,13.57
2022-11-14T06:06:30.463Z,13.73
2022-11-14T06:09:18.092Z,14.20
2022-11-14T06:12:07.830Z,15.30
2022-11-14T06:14:55.911Z,14.33
2022-11-14T06:17:42.616Z,15.13
2022-11-14T06:20:29.730Z,13.90
2022-11-14T06:23:21.943Z,18.27
2022-11-14T06:26:21.553Z,17.90
2022-11-14T06:29:08.703Z,16.27
2022-11-14T06:31:57.172Z,16.90
2022-11-14T06:34:43.935Z,17.27
2022-11-14T06:37:33.679Z,17.47
2022-11-14T06:40:21.257Z,18.53
2022-11-14T06:43:08.227Z,18.00
2022-11-14T06:45:55.939Z,17.97
2022-11-14T06:48:45.363Z,18.70
2022-11-14T06:51:32.426Z,19.30
2022-11-14T06:54:19.507Z,19.30
2022-11-14T06:57:07.200Z,19.80
2022-11-14T06:59:53.889Z,19.67
2022-11-14T07:02:40.978Z,19.13
2022-11-14T07:05:29.390Z,19.93
2022-11-14T07:08:20.789Z,20.33
2022-11-14T07:11:12.316Z,19.63
2022-11-14T07:14:02.000Z,23.70
2022-11-14T07:16:48.801Z,21.43
2022-11-14T07:19:35.843Z,21.63
2022-11-14T07:22:24.350Z,19.77
2022-11-14T07:25:11.465Z,18.63
2022-11-14T07:27:59.349Z,21.30
2022-11-14T07:30:46.584Z,18.80
2022-11-14T07:33:34.517Z,21.40
2022-11-14T07:36:21.996Z,20.43
2022-11-14T07:39:10.958Z,18.87
2022-11-14T07:41:58.120Z,20.00
2022-11-14T07:44:45.167Z,18.37
2022-11-14T07:47:32.395Z,19.90
2022-11-14T07:50:20.694Z,19.10
2022-11-14T07:53:07.978Z,19.83
2022-11-14T07:55:56.554Z,19.47
2022-11-14T07:58:43.837Z,19.40
2022-11-14T08:01:31.050Z,19.80
2022-11-14T08:04:18.298Z,20.43
2022-11-14T08:07:05.409Z,20.53
2022-11-14T08:09:52.818Z,17.73
2022-11-14T08:12:41.939Z,17.40
2022-11-14T08:15:29.409Z,18.57
2022-11-14T08:18:16.664Z,18.37
2022-11-14T08:21:05.768Z,18.70
2022-11-14T08:23:52.480Z,17.90
2022-11-14T08:26:39.699Z,17.33
2022-11-14T08:29:28.256Z,17.17
2022-11-14T08:32:15.646Z,19.43
2022-11-14T08:35:02.799Z,16.10
2022-11-14T08:37:50.209Z,16.40
2022-11-14T08:40:37.211Z,19.50
2022-11-14T08:43:24.314Z,18.87
2022-11-14T08:46:12.842Z,18.37
2022-11-14T08:48:59.942Z,19.30
2022-11-14T08:51:47.417Z,18.83
2022-11-14T08:54:34.336Z,17.97
2022-11-14T08:57:21.390Z,17.73
2022-11-14T09:00:10.146Z,18.13
2022-11-14T09:02:58.584Z,18.37
2022-11-14T09:05:45.800Z,17.47
2022-11-14T09:08:33.100Z,18.37
2022-11-14T09:11:20.266Z,17.37
2022-11-14T09:14:07.406Z,17.30
2022-11-14T09:16:54.332Z,17.90
2022-11-14T09:19:42.651Z,17.67
2022-11-14T09:22:29.472Z,16.20
2022-11-14T09:25:16.740Z,17.23
2022-11-14T09:28:07.439Z,15.43
2022-11-14T09:30:54.622Z,15.77
2022-11-14T09:33:41.813Z,15.80
2022-11-14T09:36:30.117Z,14.50
2022-11-14T09:39:17.330Z,14.20
2022-11-14T09:42:23.499Z,15.20
2022-11-14T09:45:15.193Z,16.60
2022-11-14T09:48:09.604Z,12.87
2022-11-14T09:51:08.336Z,15.00
2022-11-14T09:54:06.722Z,13.63
2022-11-14T09:56:54.021Z,12.77
2022-11-14T09:59:40.917Z,13.97
2022-11-14T10:02:44.837Z,14.10
2022-11-14T10:05:46.216Z,14.40
2022-11-14T10:08:54.394Z,14.50
2022-11-14T10:11:48.740Z,13.27
2022-11-14T10:15:05.298Z,11.70
2022-11-14T10:18:16.663Z,12.53
2022-11-14T10:21:17.780Z,12.43
2022-11-14T10:24:19.817Z,11.80
2022-11-14T10:27:20.161Z,13.33
2022-11-14T10:30:12.520Z,13.07
2022-11-14T10:33:24.791Z,11.70
2022-11-14T10:36:22.781Z,12.10
2022-11-14T10:39:17.048Z,12.33
2022-11-14T10:42:13.223Z,10.73
2022-11-14T10:45:07.794Z,11.77
2022-11-14T10:47:58.908Z,11.70
2022-11-14T10:50:52.925Z,12.17
2022-11-14T10:53:51.845Z,12.20
2022-11-14T10:56:48.685Z,11.20
2022-11-14T10:59:37.208Z,10.97
2022-11-14T11:02:25.007Z,9.70
2022-11-14T11:05:17.437Z,10.63
2022-11-14T11:08:42.708Z,11.33
2022-11-14T11:11:33.264Z,11.63
2022-11-14T11:14:21.095Z,10.00
2022-11-14T11:17:34.902Z,10.47
2022-11-14T11:20:37.255Z,11.47
2022-11-14T11:23:28.219Z,11.00
2022-11-14T11:26:24.237Z,10.60
2022-11-14T11:29:18.631Z,10.70
2022-11-14T11:32:06.292Z,9.70
2022-11-14T11:34:55.025Z,10.37
2022-11-14T11:37:47.230Z,10.93
2022-11-14T11:40:34.054Z,9.00
2022-11-14T11:43:38.728Z,9.70
2022-11-14T11:46:48.820Z,9.90
2022-11-14T11:49:42.289Z,9.37
2022-11-14T11:52:35.429Z,8.90
2022-11-14T11:55:26.058Z,9.33
2022-11-14T11:58:22.304Z,9.17
2022-11-14T12:01:12.787Z,8.83
2022-11-14T12:04:01.936Z,8.27
2022-11-14T12:06:57.401Z,8.93
2022-11-14T12:13:31.530Z,7.90
2022-11-14T12:16:48.633Z,8.07
2022-11-14T12:20:16.743Z,7.70
2022-11-14T12:23:39.040Z,7.30
2022-11-14T12:26:45.763Z,6.90
2022-11-14T12:30:14.856Z,8.10
2022-11-14T12:33:09.804Z,6.43
2022-11-14T12:36:00.436Z,7.60
2022-11-14T12:38:53.880Z,7.60
2022-11-14T12:41:43.501Z,7.13
2022-11-14T12:44:39.788Z,6.93
2022-11-14T12:47:28.313Z,7.20
2022-11-14T12:50:42.716Z,7.70
2022-11-14T12:53:46.549Z,7.40
2022-11-14T12:57:01.781Z,7.43
2022-11-14T12:59:58.806Z,7.50
2022-11-14T13:03:27.632Z,6.43
2022-11-14T13:06:24.469Z,7.83
2022-11-14T13:09:33.936Z,6.63
2022-11-14T13:12:50.116Z,6.17
2022-11-14T13:16:10.787Z,6.57
2022-11-14T13:19:21.598Z,6.87
2022-11-14T13:22:42.495Z,6.37
2022-11-14T13:25:29.484Z,6.93
2022-11-14T13:28:49.271Z,6.40
2022-11-14T13:31:52.737Z,5.90
2022-11-14T13:34:46.326Z,7.53
2022-11-14T13:38:00.850Z,6.43
2022-11-14T13:41:00.040Z,5.73
2022-11-14T13:44:04.065Z,6.57
2022-11-14T13:47:25.436Z,7.07
2022-11-14T13:50:13.758Z,6.80
2022-11-14T13:53:01.240Z,6.70
2022-11-14T13:56:00.911Z,7.30
2022-11-14T13:59:15.172Z,7.60
2022-11-14T14:02:35.593Z,7.20
2022-11-14T14:05:31.319Z,7.53
2022-11-14T14:08:34.277Z,7.13
2022-11-14T14:11:43.026Z,6.87
2022-11-14T14:15:05.713Z,7.10
2022-11-14T14:18:06.039Z,6.33
2022-11-14T14:21:04.101Z,7.03
2022-11-14T14:24:00.627Z,7.10
2022-11-14T14:27:03.511Z,6.93
2022-11-14T14:30:03.409Z,7.50
2022-11-14T14:33:14.318Z,6.40
2022-11-14T14:36:01.030Z,6.00
2022-11-14T14:38:48.727Z,7.10
2022-11-14T14:41:36.689Z,6.90
2022-11-14T14:44:28.475Z,7.20
2022-11-14T14:47:35.966Z,7.00
2022-11-14T14:50:26.565Z,5.83
2022-11-14T14:53:21.504Z,5.50
2022-11-14T14:56:20.801Z,6.10
2022-11-14T14:59:19.032Z,5.50
2022-11-14T15:02:13.852Z,5.40
2022-11-14T15:05:02.832Z,5.50
2022-11-14T15:07:50.947Z,5.20
2022-11-14T15:10:38.920Z,6.23
2022-11-14T15:13:26.672Z,7.10
2022-11-14T15:16:14.052Z,6.23
2022-11-14T15:19:02.058Z,5.70
2022-11-14T15:22:04.916Z,8.33
2022-11-14T15:25:20.369Z,7.47
2022-11-14T15:28:17.401Z,6.70
2022-11-14T15:31:06.206Z,5.67
2022-11-14T15:34:06.353Z,5.00
2022-11-14T15:37:25.393Z,6.17
2022-11-14T15:40:19.445Z,4.70
2022-11-14T15:43:38.287Z,5.73
2022-11-14T15:46:40.829Z,4.83
2022-11-14T15:49:28.959Z,5.17
2022-11-14T15:52:22.989Z,4.70
2022-11-14T15:55:18.448Z,4.63
2022-11-14T15:58:26.995Z,4.73
2022-11-14T16:01:20.374Z,4.47
2022-11-14T16:04:07.185Z,4.67
2022-11-14T16:06:54.143Z,4.43
2022-11-14T16:09:41.718Z,4.47
2022-11-14T16:12:30.001Z,4.33
2022-11-14T16:15:17.211Z,4.53
2022-11-14T16:18:09.705Z,3.80
2022-11-14T16:20:59.509Z,4.43
2022-11-14T16:23:46.791Z,4.80
2022-11-14T16:26:33.646Z,4.60
2022-11-14T16:29:22.124Z,4.77
2022-11-14T16:32:11.715Z,4.90
2022-11-14T16:34:58.642Z,5.40
2022-11-14T16:37:46.003Z,4.53
2022-11-14T16:40:32.936Z,4.57
2022-11-14T16:43:19.966Z,7.23
2022-11-14T16:46:09.349Z,5.57
2022-11-14T16:48:56.683Z,8.33
2022-11-14T16:51:49.636Z,5.40
2022-11-14T16:54:37.051Z,4.50
2022-11-14T16:57:24.710Z,5.97
2022-11-14T17:00:14.297Z,5.70
2022-11-14T17:03:02.889Z,4.70
2022-11-14T17:05:53.088Z,5.20
2022-11-14T17:08:40.239Z,4.87
2022-11-14T17:11:28.833Z,5.90
2022-11-14T17:14:16.139Z,4.20
2022-11-14T17:17:03.110Z,4.67
2022-11-14T17:19:51.874Z,5.47
2022-11-14T17:22:39.057Z,5.37
2022-11-14T17:25:26.321Z,5.57
2022-11-14T17:28:14.497Z,5.50
2022-11-14T17:31:01.712Z,4.73
2022-11-14T17:33:53.193Z,5.30
2022-11-14T17:36:41.418Z,5.67
2022-11-14T17:39:28.472Z,5.40
2022-11-14T17:42:15.328Z,5.67
2022-11-14T17:45:02.527Z,6.00
2022-11-14T17:47:49.506Z,6.97
2022-11-14T17:50:40.576Z,6.30
2022-11-14T17:53:29.462Z,5.80
2022-11-14T17:56:20.540Z,7.00
2022-11-14T17:59:08.027Z,5.50
2022-11-14T18:01:59.737Z,7.77
2022-11-14T18:04:48.128Z,7.20
2022-11-14T18:07:35.184Z,8.93
2022-11-14T18:10:23.709Z,8.30
2022-11-14T18:13:12.029Z,7.77
2022-11-14T18:16:03.194Z,8.37
2022-11-14T18:18:52.036Z,8.43
2022-11-14T18:21:40.076Z,9.53
2022-11-14T18:24:48.898Z,9.13
2022-11-14T18:27:37.262Z,11.47
2022-11-14T18:33:31.028Z,8.90
2022-11-14T18:36:18.795Z,8.20
2022-11-14T18:39:05.981Z,8.30
2022-11-14T18:41:52.894Z,7.90
2022-11-14T18:44:41.377Z,10.13
2022-11-14T18:47:30.582Z,10.00
2022-11-14T18:50:17.648Z,11.07
2022-11-14T18:53:04.479Z,9.37
2022-11-14T18:55:53.183Z,8.53
2022-11-14T18:58:41.420Z,8.20
2022-11-14T19:01:32.096Z,8.13
2022-11-14T19:04:19.740Z,8.13
2022-11-14T19:07:07.481Z,8.83
2022-11-14T19:09:54.521Z,8.50
2022-11-14T19:12:42.768Z,8.87
2022-11-14T19:15:29.618Z,7.77
2022-11-14T19:18:18.186Z,7.43
2022-11-14T19:21:06.267Z,7.90
2022-11-14T19:23:54.790Z,9.17
2022-11-14T19:26:41.801Z,8.90
2022-11-14T19:29:29.113Z,9.50
2022-11-14T19:32:16.332Z,9.80
2022-11-14T19:35:04.830Z,8.33
2022-11-14T19:37:52.011Z,8.60
2022-11-14T19:40:39.163Z,8.47
2022-11-14T19:43:26.961Z,8.80
2022-11-14T19:46:15.400Z,9.27
2022-11-14T19:49:03.938Z,8.30
2022-11-14T19:51:52.450Z,8.50
2022-11-14T19:54:39.414Z,9.07
2022-11-14T19:57:26.207Z,8.20
2022-11-14T20:00:14.912Z,8.73
2022-11-14T20:03:02.171Z,8.53
2022-11-14T20:05:49.321Z,8.53
2022-11-14T20:08:38.960Z,7.50
2022-11-14T20:11:30.536Z,8.33
2022-11-14T20:14:17.718Z,7.53
2022-11-14T20:17:05.280Z,7.67
2022-11-14T20:19:52.510Z,8.50
2022-11-14T20:22:39.930Z,7.17
2022-11-14T20:25:28.563Z,8.53
2022-11-14T20:28:15.547Z,8.40
2022-11-14T20:31:03.148Z,8.03
2022-11-14T20:33:52.018Z,8.10
2022-11-14T20:36:57.040Z,8.43
2022-11-14T20:39:46.544Z,8.50
2022-11-14T20:42:35.215Z,8.50
2022-11-14T20:45:22.145Z,8.37
2022-11-14T20:48:09.062Z,7.80
2022-11-14T20:51:04.639Z,8.23
2022-11-14T20:53:54.267Z,8.13
2022-11-14T20:56:41.683Z,8.53
2022-11-14T20:59:30.312Z,8.30
2022-11-14T21:02:17.618Z,8.50
2022-11-14T21:05:05.385Z,9.10
2022-11-14T21:07:52.275Z,8.77
2022-11-14T21:10:49.056Z,10.10
2022-11-14T21:13:54.768Z,8.73
2022-11-14T21:16:43.301Z,9.50
2022-11-14T21:19:30.267Z,9.90
2022-11-14T21:22:17.725Z,9.87
2022-11-14T21:25:05.605Z,11.10
2022-11-14T21:27:52.567Z,9.93
2022-11-14T21:30:39.748Z,11.57
2022-11-14T21:33:30.334Z,10.00
2022-11-14T21:39:26.009Z,10.00
2022-11-14T21:42:18.273Z,10.40
2022-11-14T21:45:07.644Z,10.20
2022-11-14T21:47:54.556Z,10.20
2022-11-14T21:50:43.194Z,10.40
2022-11-14T21:53:30.402Z,11.43
2022-11-14T21:56:22.104Z,10.57
2022-11-14T21:59:18.515Z,10.60
2022-11-14T22:02:23.181Z,9.60
2022-11-14T22:05:10.551Z,11.30
2022-11-14T22:07:59.190Z,10.70
2022-11-14T22:10:45.825Z,10.43
2022-11-14T22:13:33.496Z,11.37
2022-11-14T22:16:20.978Z,11.40
2022-11-14T22:19:08.259Z,12.17
2022-11-14T22:21:55.779Z,11.87
2022-11-14T22:24:44.063Z,11.10
2022-11-14T22:27:33.592Z,10.90
2022-11-14T22:30:20.866Z,12.00
2022-11-14T22:33:07.694Z,11.00
2022-11-14T22:35:54.732Z,11.67
2022-11-14T22:38:42.634Z,10.60
2022-11-14T22:41:33.832Z,10.90
2022-11-14T22:44:20.900Z,10.57
2022-11-14T22:47:07.805Z,11.00
2022-11-14T22:49:54.854Z,12.20
2022-11-14T22:52:41.654Z,11.03
2022-11-14T22:55:28.745Z,11.33
2022-11-14T22:58:17.066Z,11.40
2022-11-14T23:01:11.683Z,10.03
2022-11-14T23:04:00.630Z,10.43
2022-11-14T23:06:47.648Z,9.70
2022-11-14T23:09:34.566Z,10.37
2022-11-14T23:12:21.702Z,10.50
2022-11-14T23:15:11.230Z,11.10
2022-11-14T23:17:59.744Z,9.97
2022-11-14T23:20:47.212Z,11.67
2022-11-14T23:23:34.413Z,10.17
2022-11-14T23:26:21.379Z,11.27
2022-11-14T23:29:08.183Z,10.50
2022-11-14T23:31:56.618Z,10.03
2022-11-14T23:34:43.610Z,11.13
2022-11-14T23:37:30.895Z,10.43
2022-11-14T23:40:18.278Z,10.10
2022-11-14T23:43:05.204Z,11.60
2022-11-14T23:45:52.406Z,10.97
2022-11-14T23:48:40.937Z,10.20
2022-11-14T23:51:27.998Z,10.50
2022-11-14T23:54:15.194Z,10.40
2022-11-14T23:57:04.621Z,9.23
2022-11-14T23:59:51.585Z,10.87
